Cary, NC

8:35 AM EST on February 08, 2016 (GMT -0500)
Creekside at Bethpage | | Change Station
CLOSE
Current Station
Personal Weather Station
Location: North Carolina, NC
Elevation: 393 ft
Nearby Weather Stations

Elev 393 ft 35.90 °N, 78.83 °W | Updated 5 seconds ago

Partly Cloudy
Partly Cloudy
31.8 °F
Feels Like 32 °F
N
1.0
Wind Variable Wind from SW
Gusts 2.0 mph

Today
High -- | Low -- °F
--% Chance of Precip.
Yesterday
High -- | Low -- °F
Precip. -- in
Pressure 29.84 in
Visibility 10.0 miles
Clouds Few 21000 ft
Windchill 32 °F
Dew Point 28 °F
Humidity 87%
Rainfall 0.00 in
Snow Depth Not available.
7:09 AM 5:49 PM
Waning Crescent, 0% visible
METAR KRDU 081251Z 00000KT 10SM FEW210 M01/M04 A2983 RMK AO2 SLP104 T10111044 $
Pressure 29.84 in
Visibility 10.0 miles
Clouds Few 21000 ft
Windchill 32 °F
Dew Point 28 °F
Humidity 87%
Rainfall 0.00 in
Snow Depth Not available.
7:09 AM 5:49 PM
Waning Crescent, 0% visible
METAR KRDU 081251Z 00000KT 10SM FEW210 M01/M04 A2983 RMK AO2 SLP104 T10111044 $

10-Day Weather Forecast

Almanac

Astronomy

Feb. 08, 2016 Rise Set
Actual Time
Civil Twilight
Nautical Twilight
Astronomical Twilight
Moon
Length of Visible Light
Length of Day
Tomorrow will be .
, % of the Moon is Illuminated

Today's Extremes

State Highs State Lows

Community

WunderPhotos

Upload Photos

1,891,434 photos uploaded!

WunderBlog® & News

Nearby

Air Quality

  Air Quality AQ Index Pollutant
Not available.

Snow Depth

Station Depth Elevation

Earthquake Activity

City Distance Mag. Time & Date
Minimum magnitude displayed is 2.5.

Coastal Water Temperatures

Place Temperature

Stations

Nearby Weather Stations

Station Location Temp. Windchill Dew Point Humidity Wind Precip. Elev Updated Type
                   

Watches & Warnings

There are currently no watches in effect.